sensor_id;sensor_type;location;lat;lon;timestamp;P1;durP1;ratioP1;P2;durP2;ratioP2
69981;SDS011;57319;56.274;43.980;2023-04-16T00:00:31;56.97;;;19.40;;
69981;SDS011;57319;56.274;43.980;2023-04-16T00:02:57;63.13;;;20.63;;
69981;SDS011;57319;56.274;43.980;2023-04-16T00:05:22;71.95;;;20.85;;
69981;SDS011;57319;56.274;43.980;2023-04-16T00:07:48;64.72;;;18.92;;
69981;SDS011;57319;56.274;43.980;2023-04-16T00:10:15;60.78;;;19.13;;
69981;SDS011;57319;56.274;43.980;2023-04-16T00:12:41;49.58;;;17.55;;
69981;SDS011;57319;56.274;43.980;2023-04-16T00:15:07;39.03;;;15.65;;
69981;SDS011;57319;56.274;43.980;2023-04-16T00:17:33;37.20;;;15.63;;
69981;SDS011;57319;56.274;43.980;2023-04-16T00:19:59;43.92;;;14.88;;
69981;SDS011;57319;56.274;43.980;2023-04-16T00:22:25;38.80;;;14.60;;
69981;SDS011;57319;56.274;43.980;2023-04-16T00:24:50;52.40;;;14.25;;
69981;SDS011;57319;56.274;43.980;2023-04-16T00:27:17;54.25;;;14.98;;
69981;SDS011;57319;56.274;43.980;2023-04-16T00:29:43;56.92;;;14.15;;
69981;SDS011;57319;56.274;43.980;2023-04-16T00:32:09;42.03;;;14.30;;
69981;SDS011;57319;56.274;43.980;2023-04-16T00:34:34;42.03;;;14.93;;
69981;SDS011;57319;56.274;43.980;2023-04-16T00:37:00;41.60;;;13.88;;
69981;SDS011;57319;56.274;43.980;2023-04-16T00:39:26;42.15;;;14.27;;
69981;SDS011;57319;56.274;43.980;2023-04-16T00:41:51;37.83;;;13.95;;
69981;SDS011;57319;56.274;43.980;2023-04-16T00:44:17;50.38;;;13.82;;
69981;SDS011;57319;56.274;43.980;2023-04-16T00:46:43;37.60;;;13.77;;
69981;SDS011;57319;56.274;43.980;2023-04-16T00:49:10;43.85;;;14.85;;
69981;SDS011;57319;56.274;43.980;2023-04-16T00:51:36;46.65;;;15.05;;
69981;SDS011;57319;56.274;43.980;2023-04-16T00:54:02;40.38;;;14.60;;
69981;SDS011;57319;56.274;43.980;2023-04-16T00:56:28;55.40;;;15.18;;
69981;SDS011;57319;56.274;43.980;2023-04-16T00:58:54;37.75;;;13.73;;
69981;SDS011;57319;56.274;43.980;2023-04-16T01:01:21;56.08;;;15.75;;
69981;SDS011;57319;56.274;43.980;2023-04-16T01:03:47;53.15;;;16.75;;
69981;SDS011;57319;56.274;43.980;2023-04-16T01:06:15;53.95;;;17.13;;
69981;SDS011;57319;56.274;43.980;2023-04-16T01:08:42;54.17;;;16.30;;
69981;SDS011;57319;56.274;43.980;2023-04-16T01:11:12;45.75;;;17.40;;
69981;SDS011;57319;56.274;43.980;2023-04-16T01:13:40;50.35;;;16.60;;
69981;SDS011;57319;56.274;43.980;2023-04-16T01:16:06;49.22;;;16.15;;
69981;SDS011;57319;56.274;43.980;2023-04-16T01:18:33;54.33;;;17.83;;
69981;SDS011;57319;56.274;43.980;2023-04-16T01:21:00;45.20;;;15.85;;
69981;SDS011;57319;56.274;43.980;2023-04-16T01:23:26;52.63;;;16.35;;
69981;SDS011;57319;56.274;43.980;2023-04-16T01:25:51;41.10;;;15.25;;
69981;SDS011;57319;56.274;43.980;2023-04-16T01:28:17;45.67;;;14.30;;
69981;SDS011;57319;56.274;43.980;2023-04-16T01:30:43;58.55;;;13.10;;
69981;SDS011;57319;56.274;43.980;2023-04-16T01:33:12;48.15;;;12.48;;
69981;SDS011;57319;56.274;43.980;2023-04-16T01:35:38;35.60;;;12.27;;
69981;SDS011;57319;56.274;43.980;2023-04-16T01:38:08;37.15;;;11.45;;
69981;SDS011;57319;56.274;43.980;2023-04-16T01:40:34;35.03;;;11.55;;
69981;SDS011;57319;56.274;43.980;2023-04-16T01:43:01;53.10;;;12.32;;
69981;SDS011;57319;56.274;43.980;2023-04-16T01:45:27;37.97;;;11.98;;
69981;SDS011;57319;56.274;43.980;2023-04-16T01:47:55;43.58;;;11.32;;
69981;SDS011;57319;56.274;43.980;2023-04-16T01:50:20;27.48;;;11.43;;
69981;SDS011;57319;56.274;43.980;2023-04-16T01:52:47;50.72;;;12.23;;
69981;SDS011;57319;56.274;43.980;2023-04-16T01:55:13;33.53;;;12.32;;
69981;SDS011;57319;56.274;43.980;2023-04-16T01:57:39;29.98;;;12.35;;
69981;SDS011;57319;56.274;43.980;2023-04-16T02:00:05;37.90;;;11.75;;
69981;SDS011;57319;56.274;43.980;2023-04-16T02:02:33;38.03;;;11.88;;
69981;SDS011;57319;56.274;43.980;2023-04-16T02:04:59;32.22;;;12.05;;
69981;SDS011;57319;56.274;43.980;2023-04-16T02:07:25;29.80;;;11.88;;
69981;SDS011;57319;56.274;43.980;2023-04-16T02:09:51;30.88;;;13.02;;
69981;SDS011;57319;56.274;43.980;2023-04-16T02:12:17;40.17;;;12.52;;
69981;SDS011;57319;56.274;43.980;2023-04-16T02:14:44;49.92;;;14.18;;
69981;SDS011;57319;56.274;43.980;2023-04-16T02:17:10;46.72;;;13.70;;
69981;SDS011;57319;56.274;43.980;2023-04-16T02:19:36;40.85;;;13.88;;
69981;SDS011;57319;56.274;43.980;2023-04-16T02:22:02;32.65;;;12.50;;
69981;SDS011;57319;56.274;43.980;2023-04-16T02:24:28;39.03;;;12.50;;
69981;SDS011;57319;56.274;43.980;2023-04-16T02:26:54;61.42;;;12.73;;
69981;SDS011;57319;56.274;43.980;2023-04-16T02:29:21;39.20;;;11.95;;
69981;SDS011;57319;56.274;43.980;2023-04-16T02:31:47;30.80;;;12.18;;
69981;SDS011;57319;56.274;43.980;2023-04-16T02:34:13;44.83;;;12.95;;
69981;SDS011;57319;56.274;43.980;2023-04-16T02:36:39;48.22;;;14.20;;
69981;SDS011;57319;56.274;43.980;2023-04-16T02:39:05;39.45;;;13.65;;
69981;SDS011;57319;56.274;43.980;2023-04-16T02:41:31;44.85;;;11.70;;
69981;SDS011;57319;56.274;43.980;2023-04-16T02:43:56;32.25;;;13.05;;
69981;SDS011;57319;56.274;43.980;2023-04-16T02:46:22;40.10;;;13.23;;
69981;SDS011;57319;56.274;43.980;2023-04-16T02:48:48;29.92;;;12.07;;
69981;SDS011;57319;56.274;43.980;2023-04-16T02:51:15;44.03;;;13.32;;
69981;SDS011;57319;56.274;43.980;2023-04-16T02:53:41;26.83;;;11.43;;
69981;SDS011;57319;56.274;43.980;2023-04-16T02:56:10;40.13;;;12.00;;
69981;SDS011;57319;56.274;43.980;2023-04-16T02:58:37;42.85;;;12.23;;
69981;SDS011;57319;56.274;43.980;2023-04-16T03:01:03;33.60;;;11.85;;
69981;SDS011;57319;56.274;43.980;2023-04-16T03:03:29;28.92;;;11.32;;
69981;SDS011;57319;56.274;43.980;2023-04-16T03:05:54;28.40;;;10.88;;
69981;SDS011;57319;56.274;43.980;2023-04-16T03:08:20;39.13;;;11.10;;
69981;SDS011;57319;56.274;43.980;2023-04-16T03:10:46;41.25;;;12.95;;
69981;SDS011;57319;56.274;43.980;2023-04-16T03:13:11;41.45;;;14.75;;
69981;SDS011;57319;56.274;43.980;2023-04-16T03:15:38;43.17;;;14.70;;
69981;SDS011;57319;56.274;43.980;2023-04-16T03:18:04;41.53;;;13.52;;
69981;SDS011;57319;56.274;43.980;2023-04-16T03:20:30;53.85;;;13.75;;
69981;SDS011;57319;56.274;43.980;2023-04-16T03:22:56;36.60;;;13.27;;
69981;SDS011;57319;56.274;43.980;2023-04-16T03:25:22;33.15;;;11.90;;
69981;SDS011;57319;56.274;43.980;2023-04-16T03:27:47;35.13;;;13.02;;
69981;SDS011;57319;56.274;43.980;2023-04-16T03:30:13;26.73;;;10.10;;
69981;SDS011;57319;56.274;43.980;2023-04-16T03:32:40;35.03;;;11.05;;
69981;SDS011;57319;56.274;43.980;2023-04-16T03:35:07;31.17;;;11.77;;
69981;SDS011;57319;56.274;43.980;2023-04-16T03:37:33;33.88;;;10.70;;
69981;SDS011;57319;56.274;43.980;2023-04-16T03:39:59;29.05;;;10.65;;
69981;SDS011;57319;56.274;43.980;2023-04-16T03:42:25;34.83;;;10.93;;
69981;SDS011;57319;56.274;43.980;2023-04-16T03:44:51;40.33;;;10.75;;
69981;SDS011;57319;56.274;43.980;2023-04-16T03:47:18;30.20;;;10.57;;
69981;SDS011;57319;56.274;43.980;2023-04-16T03:49:46;47.78;;;10.73;;
69981;SDS011;57319;56.274;43.980;2023-04-16T03:52:12;33.47;;;11.02;;
69981;SDS011;57319;56.274;43.980;2023-04-16T03:54:38;44.20;;;11.68;;
69981;SDS011;57319;56.274;43.980;2023-04-16T03:57:03;28.38;;;10.85;;
69981;SDS011;57319;56.274;43.980;2023-04-16T03:59:29;35.95;;;10.73;;
69981;SDS011;57319;56.274;43.980;2023-04-16T04:01:55;20.17;;;8.85;;
69981;SDS011;57319;56.274;43.980;2023-04-16T04:04:20;32.80;;;8.85;;
69981;SDS011;57319;56.274;43.980;2023-04-16T04:06:46;29.73;;;9.43;;
69981;SDS011;57319;56.274;43.980;2023-04-16T04:09:12;41.83;;;11.05;;
69981;SDS011;57319;56.274;43.980;2023-04-16T04:11:40;34.10;;;9.10;;
69981;SDS011;57319;56.274;43.980;2023-04-16T04:14:06;17.02;;;8.75;;
69981;SDS011;57319;56.274;43.980;2023-04-16T04:16:32;23.70;;;8.48;;
69981;SDS011;57319;56.274;43.980;2023-04-16T04:18:59;22.85;;;8.18;;
69981;SDS011;57319;56.274;43.980;2023-04-16T04:21:28;14.02;;;7.85;;
69981;SDS011;57319;56.274;43.980;2023-04-16T04:23:54;24.95;;;8.80;;
69981;SDS011;57319;56.274;43.980;2023-04-16T04:26:19;30.27;;;10.40;;
69981;SDS011;57319;56.274;43.980;2023-04-16T04:28:45;33.50;;;10.90;;
69981;SDS011;57319;56.274;43.980;2023-04-16T04:31:11;15.10;;;8.60;;
69981;SDS011;57319;56.274;43.980;2023-04-16T04:33:37;26.10;;;9.00;;
69981;SDS011;57319;56.274;43.980;2023-04-16T04:36:03;23.33;;;9.70;;
69981;SDS011;57319;56.274;43.980;2023-04-16T04:38:29;38.45;;;10.50;;
69981;SDS011;57319;56.274;43.980;2023-04-16T04:40:55;35.15;;;9.48;;
69981;SDS011;57319;56.274;43.980;2023-04-16T04:43:21;27.13;;;8.95;;
69981;SDS011;57319;56.274;43.980;2023-04-16T04:45:47;25.90;;;9.95;;
69981;SDS011;57319;56.274;43.980;2023-04-16T04:48:13;34.33;;;8.23;;
69981;SDS011;57319;56.274;43.980;2023-04-16T04:50:39;26.33;;;8.48;;
69981;SDS011;57319;56.274;43.980;2023-04-16T04:53:05;26.02;;;8.02;;
69981;SDS011;57319;56.274;43.980;2023-04-16T04:55:40;23.85;;;8.50;;
69981;SDS011;57319;56.274;43.980;2023-04-16T04:58:06;15.75;;;6.57;;
69981;SDS011;57319;56.274;43.980;2023-04-16T05:00:32;13.73;;;6.00;;
69981;SDS011;57319;56.274;43.980;2023-04-16T05:03:02;17.13;;;6.88;;
69981;SDS011;57319;56.274;43.980;2023-04-16T05:05:29;25.08;;;8.45;;
69981;SDS011;57319;56.274;43.980;2023-04-16T05:07:55;21.25;;;6.68;;
69981;SDS011;57319;56.274;43.980;2023-04-16T05:10:20;21.13;;;6.45;;
69981;SDS011;57319;56.274;43.980;2023-04-16T05:12:46;16.40;;;6.32;;
69981;SDS011;57319;56.274;43.980;2023-04-16T05:15:15;19.15;;;6.32;;
69981;SDS011;57319;56.274;43.980;2023-04-16T05:17:41;17.00;;;6.03;;
69981;SDS011;57319;56.274;43.980;2023-04-16T05:20:07;13.85;;;5.35;;
69981;SDS011;57319;56.274;43.980;2023-04-16T05:22:33;15.35;;;5.75;;
69981;SDS011;57319;56.274;43.980;2023-04-16T05:24:59;16.23;;;6.25;;
69981;SDS011;57319;56.274;43.980;2023-04-16T05:27:25;16.33;;;5.53;;
69981;SDS011;57319;56.274;43.980;2023-04-16T05:29:51;17.20;;;6.55;;
69981;SDS011;57319;56.274;43.980;2023-04-16T05:32:16;11.70;;;7.03;;
69981;SDS011;57319;56.274;43.980;2023-04-16T05:34:42;13.68;;;5.75;;
69981;SDS011;57319;56.274;43.980;2023-04-16T05:37:08;14.45;;;6.07;;
69981;SDS011;57319;56.274;43.980;2023-04-16T05:39:33;6.30;;;3.83;;
69981;SDS011;57319;56.274;43.980;2023-04-16T05:41:59;10.32;;;4.05;;
69981;SDS011;57319;56.274;43.980;2023-04-16T05:44:25;19.08;;;4.95;;
69981;SDS011;57319;56.274;43.980;2023-04-16T05:46:50;19.33;;;6.18;;
69981;SDS011;57319;56.274;43.980;2023-04-16T05:49:16;11.10;;;5.80;;
69981;SDS011;57319;56.274;43.980;2023-04-16T05:51:46;22.42;;;4.90;;
69981;SDS011;57319;56.274;43.980;2023-04-16T05:54:12;17.65;;;6.10;;
69981;SDS011;57319;56.274;43.980;2023-04-16T05:56:38;17.15;;;6.10;;
69981;SDS011;57319;56.274;43.980;2023-04-16T05:59:04;20.27;;;6.72;;
69981;SDS011;57319;56.274;43.980;2023-04-16T06:01:31;14.65;;;8.30;;
69981;SDS011;57319;56.274;43.980;2023-04-16T06:03:57;16.67;;;6.53;;
69981;SDS011;57319;56.274;43.980;2023-04-16T06:06:22;12.45;;;6.65;;
69981;SDS011;57319;56.274;43.980;2023-04-16T06:08:48;26.13;;;8.07;;
69981;SDS011;57319;56.274;43.980;2023-04-16T06:11:14;17.33;;;7.13;;
69981;SDS011;57319;56.274;43.980;2023-04-16T06:13:40;16.73;;;6.85;;
69981;SDS011;57319;56.274;43.980;2023-04-16T06:16:06;23.80;;;6.70;;
69981;SDS011;57319;56.274;43.980;2023-04-16T06:18:32;23.25;;;6.82;;
69981;SDS011;57319;56.274;43.980;2023-04-16T06:20:58;15.48;;;6.57;;
69981;SDS011;57319;56.274;43.980;2023-04-16T06:23:23;25.45;;;6.68;;
69981;SDS011;57319;56.274;43.980;2023-04-16T06:25:49;19.20;;;6.22;;
69981;SDS011;57319;56.274;43.980;2023-04-16T06:28:15;10.35;;;5.07;;
69981;SDS011;57319;56.274;43.980;2023-04-16T06:30:40;16.02;;;5.85;;
69981;SDS011;57319;56.274;43.980;2023-04-16T06:33:06;14.80;;;5.40;;
69981;SDS011;57319;56.274;43.980;2023-04-16T06:35:32;7.97;;;4.43;;
69981;SDS011;57319;56.274;43.980;2023-04-16T06:37:58;13.63;;;3.10;;
69981;SDS011;57319;56.274;43.980;2023-04-16T06:40:23;12.05;;;3.50;;
69981;SDS011;57319;56.274;43.980;2023-04-16T06:42:49;22.65;;;3.45;;
69981;SDS011;57319;56.274;43.980;2023-04-16T06:45:15;11.50;;;2.70;;
69981;SDS011;57319;56.274;43.980;2023-04-16T06:47:41;19.38;;;4.75;;
69981;SDS011;57319;56.274;43.980;2023-04-16T06:50:06;7.65;;;2.70;;
69981;SDS011;57319;56.274;43.980;2023-04-16T06:52:32;5.13;;;2.70;;
69981;SDS011;57319;56.274;43.980;2023-04-16T06:54:58;8.98;;;2.47;;
69981;SDS011;57319;56.274;43.980;2023-04-16T06:57:23;5.82;;;2.20;;
69981;SDS011;57319;56.274;43.980;2023-04-16T06:59:49;9.68;;;2.40;;
69981;SDS011;57319;56.274;43.980;2023-04-16T07:02:15;10.38;;;2.35;;
69981;SDS011;57319;56.274;43.980;2023-04-16T07:04:41;5.07;;;2.00;;
69981;SDS011;57319;56.274;43.980;2023-04-16T07:07:07;2.90;;;1.75;;
69981;SDS011;57319;56.274;43.980;2023-04-16T07:09:33;2.42;;;1.45;;
69981;SDS011;57319;56.274;43.980;2023-04-16T07:11:58;1.63;;;1.52;;
69981;SDS011;57319;56.274;43.980;2023-04-16T07:14:24;2.05;;;1.92;;
69981;SDS011;57319;56.274;43.980;2023-04-16T07:16:50;4.78;;;1.48;;
69981;SDS011;57319;56.274;43.980;2023-04-16T07:19:16;8.57;;;1.50;;
69981;SDS011;57319;56.274;43.980;2023-04-16T07:21:41;2.03;;;1.38;;
69981;SDS011;57319;56.274;43.980;2023-04-16T07:24:11;5.88;;;1.52;;
69981;SDS011;57319;56.274;43.980;2023-04-16T07:26:37;4.88;;;1.00;;
69981;SDS011;57319;56.274;43.980;2023-04-16T07:29:02;0.90;;;0.90;;
69981;SDS011;57319;56.274;43.980;2023-04-16T07:31:28;11.18;;;5.60;;
69981;SDS011;57319;56.274;43.980;2023-04-16T07:33:54;2.00;;;1.02;;
69981;SDS011;57319;56.274;43.980;2023-04-16T07:36:20;1.02;;;0.90;;
69981;SDS011;57319;56.274;43.980;2023-04-16T07:38:45;15.35;;;7.32;;
69981;SDS011;57319;56.274;43.980;2023-04-16T07:41:11;4.70;;;0.90;;
69981;SDS011;57319;56.274;43.980;2023-04-16T07:43:37;12.55;;;6.43;;
69981;SDS011;57319;56.274;43.980;2023-04-16T07:46:03;2.30;;;1.25;;
69981;SDS011;57319;56.274;43.980;2023-04-16T07:48:29;0.98;;;0.98;;
69981;SDS011;57319;56.274;43.980;2023-04-16T07:50:54;1.80;;;1.15;;
69981;SDS011;57319;56.274;43.980;2023-04-16T07:53:20;6.55;;;1.35;;
69981;SDS011;57319;56.274;43.980;2023-04-16T07:55:46;3.67;;;1.40;;
69981;SDS011;57319;56.274;43.980;2023-04-16T07:58:12;3.72;;;1.05;;
69981;SDS011;57319;56.274;43.980;2023-04-16T08:00:38;1.70;;;1.00;;
69981;SDS011;57319;56.274;43.980;2023-04-16T08:03:03;3.88;;;1.20;;
69981;SDS011;57319;56.274;43.980;2023-04-16T08:05:29;4.28;;;1.30;;
69981;SDS011;57319;56.274;43.980;2023-04-16T08:07:55;1.55;;;1.20;;
69981;SDS011;57319;56.274;43.980;2023-04-16T08:10:20;0.60;;;0.60;;
69981;SDS011;57319;56.274;43.980;2023-04-16T08:12:46;3.20;;;1.00;;
69981;SDS011;57319;56.274;43.980;2023-04-16T08:15:12;1.02;;;0.85;;
69981;SDS011;57319;56.274;43.980;2023-04-16T08:17:37;3.83;;;0.90;;
69981;SDS011;57319;56.274;43.980;2023-04-16T08:20:04;3.13;;;0.95;;
69981;SDS011;57319;56.274;43.980;2023-04-16T08:22:31;1.30;;;1.10;;
69981;SDS011;57319;56.274;43.980;2023-04-16T08:24:57;1.17;;;1.10;;
69981;SDS011;57319;56.274;43.980;2023-04-16T08:27:23;1.20;;;1.08;;
69981;SDS011;57319;56.274;43.980;2023-04-16T08:29:49;2.53;;;1.00;;
69981;SDS011;57319;56.274;43.980;2023-04-16T08:32:14;4.55;;;0.98;;
69981;SDS011;57319;56.274;43.980;2023-04-16T08:34:40;1.00;;;0.88;;
69981;SDS011;57319;56.274;43.980;2023-04-16T08:37:06;4.82;;;1.10;;
69981;SDS011;57319;56.274;43.980;2023-04-16T08:39:32;0.73;;;0.70;;
69981;SDS011;57319;56.274;43.980;2023-04-16T08:41:58;1.60;;;0.85;;
69981;SDS011;57319;56.274;43.980;2023-04-16T08:44:32;1.65;;;0.80;;
69981;SDS011;57319;56.274;43.980;2023-04-16T08:47:01;8.70;;;1.30;;
69981;SDS011;57319;56.274;43.980;2023-04-16T08:49:27;1.67;;;1.33;;
69981;SDS011;57319;56.274;43.980;2023-04-16T08:51:54;0.77;;;0.77;;
69981;SDS011;57319;56.274;43.980;2023-04-16T08:56:49;1.17;;;1.05;;
69981;SDS011;57319;56.274;43.980;2023-04-16T08:59:15;4.00;;;1.85;;
69981;SDS011;57319;56.274;43.980;2023-04-16T09:01:42;2.67;;;1.75;;
69981;SDS011;57319;56.274;43.980;2023-04-16T09:04:07;6.60;;;1.35;;
69981;SDS011;57319;56.274;43.980;2023-04-16T09:06:33;6.00;;;1.73;;
69981;SDS011;57319;56.274;43.980;2023-04-16T09:09:01;2.50;;;0.93;;
69981;SDS011;57319;56.274;43.980;2023-04-16T09:11:29;1.48;;;1.38;;
69981;SDS011;57319;56.274;43.980;2023-04-16T09:13:54;5.07;;;1.40;;
69981;SDS011;57319;56.274;43.980;2023-04-16T09:16:21;7.80;;;2.08;;
69981;SDS011;57319;56.274;43.980;2023-04-16T09:18:49;7.82;;;2.30;;
69981;SDS011;57319;56.274;43.980;2023-04-16T09:21:16;6.68;;;2.55;;
69981;SDS011;57319;56.274;43.980;2023-04-16T09:23:43;17.75;;;2.50;;
69981;SDS011;57319;56.274;43.980;2023-04-16T09:26:09;1.63;;;1.52;;
69981;SDS011;57319;56.274;43.980;2023-04-16T09:28:41;3.83;;;2.00;;
69981;SDS011;57319;56.274;43.980;2023-04-16T09:31:09;4.43;;;2.00;;
69981;SDS011;57319;56.274;43.980;2023-04-16T09:33:37;6.10;;;2.50;;
69981;SDS011;57319;56.274;43.980;2023-04-16T09:36:02;6.25;;;3.10;;
69981;SDS011;57319;56.274;43.980;2023-04-16T09:38:45;10.45;;;3.95;;
69981;SDS011;57319;56.274;43.980;2023-04-16T09:41:12;6.75;;;3.30;;
69981;SDS011;57319;56.274;43.980;2023-04-16T09:43:41;3.17;;;1.90;;
69981;SDS011;57319;56.274;43.980;2023-04-16T09:46:13;2.35;;;2.15;;
69981;SDS011;57319;56.274;43.980;2023-04-16T09:48:39;4.82;;;1.70;;
69981;SDS011;57319;56.274;43.980;2023-04-16T09:51:05;3.15;;;1.50;;
69981;SDS011;57319;56.274;43.980;2023-04-16T09:53:31;1.80;;;1.30;;
69981;SDS011;57319;56.274;43.980;2023-04-16T09:56:01;1.55;;;1.52;;
69981;SDS011;57319;56.274;43.980;2023-04-16T09:58:29;3.08;;;1.50;;
69981;SDS011;57319;56.274;43.980;2023-04-16T10:00:55;1.23;;;1.10;;
69981;SDS011;57319;56.274;43.980;2023-04-16T10:03:29;10.07;;;1.48;;
69981;SDS011;57319;56.274;43.980;2023-04-16T10:05:58;4.85;;;1.00;;
69981;SDS011;57319;56.274;43.980;2023-04-16T10:08:41;0.98;;;0.98;;
69981;SDS011;57319;56.274;43.980;2023-04-16T10:11:08;1.00;;;1.00;;
69981;SDS011;57319;56.274;43.980;2023-04-16T10:13:34;1.13;;;1.10;;
69981;SDS011;57319;56.274;43.980;2023-04-16T10:16:00;13.77;;;1.70;;
69981;SDS011;57319;56.274;43.980;2023-04-16T10:18:27;12.88;;;1.42;;
69981;SDS011;57319;56.274;43.980;2023-04-16T10:20:53;3.28;;;1.15;;
69981;SDS011;57319;56.274;43.980;2023-04-16T10:23:20;8.63;;;1.20;;
69981;SDS011;57319;56.274;43.980;2023-04-16T10:25:47;2.00;;;1.17;;
69981;SDS011;57319;56.274;43.980;2023-04-16T10:28:13;4.03;;;1.00;;
69981;SDS011;57319;56.274;43.980;2023-04-16T10:30:40;0.95;;;0.95;;
69981;SDS011;57319;56.274;43.980;2023-04-16T10:33:20;5.72;;;1.17;;
69981;SDS011;57319;56.274;43.980;2023-04-16T10:35:48;2.30;;;0.98;;
69981;SDS011;57319;56.274;43.980;2023-04-16T10:38:24;1.35;;;1.10;;
69981;SDS011;57319;56.274;43.980;2023-04-16T10:40:59;4.68;;;1.23;;
69981;SDS011;57319;56.274;43.980;2023-04-16T10:45:53;1.48;;;1.35;;
69981;SDS011;57319;56.274;43.980;2023-04-16T10:48:19;1.85;;;1.35;;
69981;SDS011;57319;56.274;43.980;2023-04-16T10:50:55;11.82;;;1.50;;
69981;SDS011;57319;56.274;43.980;2023-04-16T10:53:26;1.20;;;1.20;;
69981;SDS011;57319;56.274;43.980;2023-04-16T10:58:27;4.00;;;1.75;;
69981;SDS011;57319;56.274;43.980;2023-04-16T11:00:54;3.78;;;1.52;;
69981;SDS011;57319;56.274;43.980;2023-04-16T11:03:19;2.28;;;1.40;;
69981;SDS011;57319;56.274;43.980;2023-04-16T11:05:45;5.72;;;1.13;;
69981;SDS011;57319;56.274;43.980;2023-04-16T11:08:14;8.18;;;1.58;;
69981;SDS011;57319;56.274;43.980;2023-04-16T11:10:40;4.57;;;1.48;;
69981;SDS011;57319;56.274;43.980;2023-04-16T11:13:06;1.15;;;0.93;;
69981;SDS011;57319;56.274;43.980;2023-04-16T11:15:33;4.95;;;1.58;;
69981;SDS011;57319;56.274;43.980;2023-04-16T11:17:59;7.28;;;2.10;;
69981;SDS011;57319;56.274;43.980;2023-04-16T11:20:25;2.28;;;1.25;;
69981;SDS011;57319;56.274;43.980;2023-04-16T11:22:53;5.78;;;1.35;;
69981;SDS011;57319;56.274;43.980;2023-04-16T11:27:47;1.70;;;1.25;;
69981;SDS011;57319;56.274;43.980;2023-04-16T11:30:13;4.72;;;1.55;;
69981;SDS011;57319;56.274;43.980;2023-04-16T11:32:39;9.52;;;1.20;;
69981;SDS011;57319;56.274;43.980;2023-04-16T11:35:15;1.52;;;1.38;;
69981;SDS011;57319;56.274;43.980;2023-04-16T11:37:42;10.23;;;1.30;;
69981;SDS011;57319;56.274;43.980;2023-04-16T11:40:08;2.92;;;1.33;;
69981;SDS011;57319;56.274;43.980;2023-04-16T11:42:35;8.07;;;2.05;;
69981;SDS011;57319;56.274;43.980;2023-04-16T16:07:11;32.75;;;3.45;;
69981;SDS011;57319;56.274;43.980;2023-04-16T16:09:39;22.55;;;3.28;;
69981;SDS011;57319;56.274;43.980;2023-04-16T16:12:05;8.38;;;3.42;;
69981;SDS011;57319;56.274;43.980;2023-04-16T16:14:31;39.25;;;4.97;;
69981;SDS011;57319;56.274;43.980;2023-04-16T16:16:57;25.30;;;3.97;;
69981;SDS011;57319;56.274;43.980;2023-04-16T16:19:23;29.15;;;3.72;;
69981;SDS011;57319;56.274;43.980;2023-04-16T16:21:48;39.17;;;4.60;;
69981;SDS011;57319;56.274;43.980;2023-04-16T16:24:14;32.78;;;4.38;;
69981;SDS011;57319;56.274;43.980;2023-04-16T16:26:40;30.63;;;4.53;;
69981;SDS011;57319;56.274;43.980;2023-04-16T16:29:05;46.53;;;5.03;;
69981;SDS011;57319;56.274;43.980;2023-04-16T16:31:31;39.78;;;4.40;;
69981;SDS011;57319;56.274;43.980;2023-04-16T16:33:57;63.33;;;5.30;;
69981;SDS011;57319;56.274;43.980;2023-04-16T16:36:22;50.45;;;5.07;;
69981;SDS011;57319;56.274;43.980;2023-04-16T16:38:48;40.55;;;5.07;;
69981;SDS011;57319;56.274;43.980;2023-04-16T16:41:14;82.60;;;7.43;;
69981;SDS011;57319;56.274;43.980;2023-04-16T16:43:39;36.90;;;4.00;;
69981;SDS011;57319;56.274;43.980;2023-04-16T16:46:05;33.75;;;4.50;;
69981;SDS011;57319;56.274;43.980;2023-04-16T16:48:32;54.03;;;5.50;;
69981;SDS011;57319;56.274;43.980;2023-04-16T16:50:58;13.77;;;3.67;;
69981;SDS011;57319;56.274;43.980;2023-04-16T16:53:23;29.83;;;4.60;;
69981;SDS011;57319;56.274;43.980;2023-04-16T16:55:49;21.45;;;4.18;;
69981;SDS011;57319;56.274;43.980;2023-04-16T16:58:14;11.48;;;3.17;;
69981;SDS011;57319;56.274;43.980;2023-04-16T17:00:40;12.50;;;3.35;;
69981;SDS011;57319;56.274;43.980;2023-04-16T17:03:06;46.70;;;5.50;;
69981;SDS011;57319;56.274;43.980;2023-04-16T17:05:33;20.02;;;4.28;;
69981;SDS011;57319;56.274;43.980;2023-04-16T17:07:59;26.17;;;4.68;;
69981;SDS011;57319;56.274;43.980;2023-04-16T17:10:24;45.80;;;5.78;;
69981;SDS011;57319;56.274;43.980;2023-04-16T17:12:50;22.17;;;4.78;;
69981;SDS011;57319;56.274;43.980;2023-04-16T17:15:16;11.63;;;3.60;;
69981;SDS011;57319;56.274;43.980;2023-04-16T17:17:42;19.08;;;3.50;;
69981;SDS011;57319;56.274;43.980;2023-04-16T17:20:08;12.98;;;2.97;;
69981;SDS011;57319;56.274;43.980;2023-04-16T17:22:37;24.92;;;3.88;;
69981;SDS011;57319;56.274;43.980;2023-04-16T17:25:04;34.92;;;4.72;;
69981;SDS011;57319;56.274;43.980;2023-04-16T17:27:31;18.25;;;3.08;;
69981;SDS011;57319;56.274;43.980;2023-04-16T17:29:58;40.92;;;5.38;;
69981;SDS011;57319;56.274;43.980;2023-04-16T17:32:29;24.15;;;4.15;;
69981;SDS011;57319;56.274;43.980;2023-04-16T17:34:56;31.38;;;5.20;;
69981;SDS011;57319;56.274;43.980;2023-04-16T17:37:23;33.92;;;5.63;;
69981;SDS011;57319;56.274;43.980;2023-04-16T17:39:49;21.38;;;6.32;;
69981;SDS011;57319;56.274;43.980;2023-04-16T17:42:15;31.35;;;9.02;;
69981;SDS011;57319;56.274;43.980;2023-04-16T17:44:42;22.83;;;7.47;;
69981;SDS011;57319;56.274;43.980;2023-04-16T17:47:08;27.80;;;8.93;;
69981;SDS011;57319;56.274;43.980;2023-04-16T17:49:34;25.00;;;7.25;;
69981;SDS011;57319;56.274;43.980;2023-04-16T17:52:00;24.35;;;6.15;;
69981;SDS011;57319;56.274;43.980;2023-04-16T17:54:25;21.67;;;7.18;;
69981;SDS011;57319;56.274;43.980;2023-04-16T17:56:51;37.58;;;7.43;;
69981;SDS011;57319;56.274;43.980;2023-04-16T17:59:16;14.48;;;7.25;;
69981;SDS011;57319;56.274;43.980;2023-04-16T18:01:42;36.65;;;9.93;;
69981;SDS011;57319;56.274;43.980;2023-04-16T18:04:09;32.33;;;9.90;;
69981;SDS011;57319;56.274;43.980;2023-04-16T18:06:35;37.75;;;8.55;;
69981;SDS011;57319;56.274;43.980;2023-04-16T18:09:00;35.83;;;8.15;;
69981;SDS011;57319;56.274;43.980;2023-04-16T18:11:27;33.22;;;8.57;;
69981;SDS011;57319;56.274;43.980;2023-04-16T18:13:52;40.90;;;7.80;;
69981;SDS011;57319;56.274;43.980;2023-04-16T18:16:18;36.05;;;7.28;;
69981;SDS011;57319;56.274;43.980;2023-04-16T18:18:44;24.25;;;7.63;;
69981;SDS011;57319;56.274;43.980;2023-04-16T18:21:10;30.15;;;8.25;;
69981;SDS011;57319;56.274;43.980;2023-04-16T18:23:36;33.05;;;9.45;;
69981;SDS011;57319;56.274;43.980;2023-04-16T18:26:02;42.58;;;9.80;;
69981;SDS011;57319;56.274;43.980;2023-04-16T18:28:28;55.03;;;10.35;;
69981;SDS011;57319;56.274;43.980;2023-04-16T18:30:54;35.50;;;8.02;;
69981;SDS011;57319;56.274;43.980;2023-04-16T18:33:20;49.58;;;9.10;;
69981;SDS011;57319;56.274;43.980;2023-04-16T18:35:45;54.67;;;9.45;;
69981;SDS011;57319;56.274;43.980;2023-04-16T18:38:11;29.95;;;8.60;;
69981;SDS011;57319;56.274;43.980;2023-04-16T18:40:38;29.58;;;8.35;;
69981;SDS011;57319;56.274;43.980;2023-04-16T18:43:05;39.50;;;8.93;;
69981;SDS011;57319;56.274;43.980;2023-04-16T18:45:31;48.33;;;8.60;;
69981;SDS011;57319;56.274;43.980;2023-04-16T18:47:57;32.33;;;7.15;;